Aviation Digital Data Service (ADDS)

Output produced by TAFs form (2136 UTC 29 August 2016)
found at http://www.aviationweather.gov/adds/tafs/
 
TAF KDOV 291600Z 2916/3022 31006KT 9999 FEW040 SCT070 QNH3006INS 
     BECMG 2922/2923 VRB06KT 9999 SCT040 QNH3005INS 
     TEMPO 3012/3016 09010G15KT TX32/2920Z TN21/3009Z